Time;durP1;ratioP1;P1;durP2;ratioP2;P2;SDS_P1;SDS_P2;PMS_P1;PMS_P2;Temp;Humidity;BMP_temperature;BMP_pressure;BME280_temperature;BME280_humidity;BME280_pressure;Samples;Min_cycle;Max_cycle;Signal;HPM_P1;HPM_P2
2020/12/09 05:18:10;;;;;;;13.43;7.15;;;2.00;99.90;;;;;;5791549;23;20049;-72
2020/12/09 05:20:40;;;;;;;13.02;6.88;;;2.00;99.90;;;;;;4894418;29;20404;-72
2020/12/09 05:23:10;;;;;;;12.52;7.40;;;2.00;99.90;;;;;;4896530;29;20048;-71
2020/12/09 05:25:37;;;;;;;14.30;6.93;;;2.00;99.90;;;;;;4896143;29;20043;-71
2020/12/09 05:28:05;;;;;;;13.18;7.22;;;2.00;99.90;;;;;;4896237;29;20487;-73
2020/12/09 05:30:48;;;;;;;15.57;7.88;;;2.00;99.90;;;;;;4883271;29;20033;-72
2020/12/09 05:33:17;;;;;;;13.75;7.22;;;1.90;99.90;;;;;;4895909;29;20037;-73
2020/12/09 05:35:53;;;;;;;14.95;7.63;;;1.90;99.90;;;;;;4896360;29;20033;-73
2020/12/09 05:38:19;;;;;;;13.57;6.93;;;1.90;99.90;;;;;;4896091;29;20033;-78
2020/12/09 05:40:46;;;;;;;17.08;8.57;;;1.90;99.90;;;;;;4896205;29;20023;-77
2020/12/09 05:43:13;;;;;;;17.65;7.75;;;2.00;99.90;;;;;;4898028;29;20032;-79
2020/12/09 05:45:40;;;;;;;12.60;7.30;;;2.20;99.90;;;;;;4899291;29;20034;-73
2020/12/09 05:48:21;;;;;;;12.15;7.85;;;2.20;99.90;;;;;;4899574;29;20099;-73
2020/12/09 05:50:58;;;;;;;14.95;7.82;;;2.20;99.90;;;;;;4899167;29;20043;-71
2020/12/09 05:53:24;;;;;;;13.80;7.50;;;2.10;99.90;;;;;;4899038;29;20069;-72
2020/12/09 05:55:57;;;;;;;14.02;8.25;;;2.10;99.90;;;;;;4898908;29;20048;-73
2020/12/09 05:58:26;;;;;;;14.25;8.00;;;2.00;99.90;;;;;;4895926;29;20116;-72
2020/12/09 06:01:12;;;;;;;13.93;8.17;;;2.00;99.90;;;;;;4892254;29;20168;-75
2020/12/09 06:03:43;;;;;;;15.55;7.65;;;2.00;99.90;;;;;;4894205;29;20033;-75
2020/12/09 06:06:17;;;;;;;29.85;14.18;;;1.90;99.90;;;;;;4889879;29;20032;-75
2020/12/09 06:08:48;;;;;;;13.82;7.28;;;1.90;99.90;;;;;;4895420;29;20035;-75
2020/12/09 06:11:16;;;;;;;12.95;7.80;;;1.90;99.90;;;;;;4898556;29;20043;-75
2020/12/09 06:13:42;;;;;;;13.30;7.50;;;1.90;99.90;;;;;;4898567;29;20029;-75
2020/12/09 06:16:09;;;;;;;12.05;6.50;;;1.90;99.90;;;;;;4898391;29;20028;-73
2020/12/09 06:18:38;;;;;;;13.18;7.38;;;1.90;99.90;;;;;;4888335;29;20136;-74
2020/12/09 06:21:05;;;;;;;11.93;6.88;;;1.90;99.90;;;;;;4869389;29;20026;-76
2020/12/09 06:23:31;;;;;;;10.90;6.55;;;1.90;99.90;;;;;;4886244;29;20032;-75
2020/12/09 06:25:59;;;;;;;11.77;6.88;;;1.90;99.90;;;;;;4888239;29;20020;-75
2020/12/09 06:28:26;;;;;;;11.48;6.18;;;1.90;99.90;;;;;;4892292;29;20501;-75
2020/12/09 06:31:31;;;;;;;10.13;6.55;;;1.90;99.90;;;;;;4868776;29;20036;-75
2020/12/09 06:34:13;;;;;;;11.15;6.32;;;1.90;99.90;;;;;;4861700;29;20030;-75
2020/12/09 06:36:39;;;;;;;11.00;6.35;;;1.80;99.90;;;;;;4864294;29;20033;-75
2020/12/09 06:39:08;;;;;;;11.63;6.45;;;1.80;99.90;;;;;;4871909;29;20101;-74
2020/12/09 06:41:40;;;;;;;11.55;7.20;;;1.80;99.90;;;;;;4862579;29;20061;-74
2020/12/09 06:44:07;;;;;;;11.63;6.35;;;1.80;99.90;;;;;;4879913;29;20085;-75
2020/12/09 06:46:41;;;;;;;11.57;6.97;;;1.80;99.90;;;;;;4866526;29;20076;-75
2020/12/09 06:49:29;;;;;;;14.82;7.43;;;1.80;99.90;;;;;;4872730;29;20037;-75
2020/12/09 06:51:55;;;;;;;12.70;6.95;;;1.80;99.90;;;;;;4863489;29;20032;-74
2020/12/09 06:54:21;;;;;;;12.98;7.13;;;1.80;99.90;;;;;;4879113;29;20111;-75
2020/12/09 06:57:12;;;;;;;12.60;6.78;;;1.80;99.90;;;;;;4866723;29;20125;-75
2020/12/09 06:59:37;;;;;;;;;;;1.80;99.90;;;;;;4870415;29;20048;-75
2020/12/09 07:02:05;;;;;;;10.65;5.65;;;1.80;99.90;;;;;;4874347;29;20002;-75
2020/12/09 07:04:54;;;;;;;11.35;6.15;;;2.10;99.90;;;;;;4868429;29;20021;-74
2020/12/09 07:07:29;;;;;;;10.82;6.57;;;2.20;99.90;;;;;;4852943;29;20499;-72
2020/12/09 07:09:55;;;;;;;10.82;6.50;;;2.10;99.90;;;;;;4864308;29;20384;-72
2020/12/09 07:12:22;;;;;;;14.00;7.40;;;2.00;99.90;;;;;;4873755;29;20044;-73
2020/12/09 07:14:49;;;;;;;12.95;7.22;;;1.90;99.90;;;;;;4866283;29;20059;-73
2020/12/09 07:17:20;;;;;;;15.10;6.70;;;1.90;99.90;;;;;;4870640;29;20033;-73
2020/12/09 07:19:46;;;;;;;14.00;6.15;;;1.90;99.90;;;;;;4873442;29;20037;-73
2020/12/09 07:22:12;;;;;;;12.65;6.72;;;1.90;99.90;;;;;;4870140;29;20044;-73
2020/12/09 07:24:37;;;;;;;13.27;6.75;;;1.80;99.90;;;;;;4872826;29;20441;-75
2020/12/09 07:27:03;;;;;;;11.57;6.28;;;1.80;99.90;;;;;;4874108;29;20096;-82
2020/12/09 07:29:29;;;;;;;8.95;5.70;;;1.80;99.90;;;;;;4861001;29;20220;-76
2020/12/09 07:32:00;;;;;;;9.63;6.15;;;1.80;99.90;;;;;;4860785;29;20022;-79
2020/12/09 07:34:26;;;;;;;10.82;6.55;;;1.70;99.90;;;;;;4865693;29;20136;-74
2020/12/09 07:36:52;;;;;;;12.32;6.78;;;1.70;99.90;;;;;;4868686;29;20081;-76
2020/12/09 07:39:34;;;;;;;11.75;6.38;;;1.70;99.90;;;;;;4871748;29;20033;-72
2020/12/09 07:42:01;;;;;;;9.48;6.22;;;1.70;99.90;;;;;;4883282;29;20029;-74
2020/12/09 07:44:33;;;;;;;12.13;6.50;;;1.70;99.90;;;;;;4881883;29;20026;-76
2020/12/09 07:46:59;;;;;;;15.32;7.45;;;1.70;99.90;;;;;;4878566;29;20040;-76
2020/12/09 07:49:25;;;;;;;14.52;7.03;;;1.70;99.90;;;;;;4862325;29;20105;-74
2020/12/09 07:51:53;;;;;;;14.45;7.57;;;1.70;99.90;;;;;;4882103;29;20025;-72
2020/12/09 07:54:21;;;;;;;13.15;6.60;;;1.70;99.90;;;;;;4868890;29;20036;-72
2020/12/09 07:56:47;;;;;;;15.38;6.85;;;1.80;99.90;;;;;;4870069;29;20061;-72
2020/12/09 07:59:14;;;;;;;14.50;6.60;;;1.70;99.90;;;;;;4876774;29;20068;-73
2020/12/09 08:01:41;;;;;;;14.07;7.18;;;1.70;99.90;;;;;;4866391;29;20064;-72
2020/12/09 08:04:09;;;;;;;16.13;6.40;;;1.70;99.90;;;;;;4866752;29;20021;-72
2020/12/09 08:06:35;;;;;;;11.70;6.43;;;1.60;99.90;;;;;;4863030;29;20042;-74
2020/12/09 08:09:17;;;;;;;21.33;6.82;;;1.60;99.90;;;;;;4870002;29;20036;-74
2020/12/09 08:11:46;;;;;;;13.43;6.85;;;1.60;99.90;;;;;;4864020;29;20082;-72
2020/12/09 08:14:13;;;;;;;12.35;6.88;;;1.70;99.90;;;;;;4864175;29;20085;-72
2020/12/09 08:16:39;;;;;;;17.77;7.65;;;1.70;99.90;;;;;;4869408;29;20029;-83
2020/12/09 08:19:10;;;;;;;9.88;6.30;;;1.70;99.90;;;;;;4872662;29;20060;-73
2020/12/09 08:21:38;;;;;;;15.50;6.88;;;1.70;99.90;;;;;;4866234;29;20448;-73
2020/12/09 08:24:13;;;;;;;12.25;7.13;;;1.70;99.90;;;;;;4878877;29;20028;-73
2020/12/09 08:26:42;;;;;;;13.57;6.82;;;1.60;99.90;;;;;;4874821;29;20029;-73
2020/12/09 08:29:16;;;;;;;11.88;6.55;;;1.60;99.90;;;;;;4867424;29;20034;-73
2020/12/09 08:31:41;;;;;;;11.95;6.82;;;1.60;99.90;;;;;;4872476;29;20522;-73
2020/12/09 08:34:14;;;;;;;14.32;6.57;;;1.60;99.90;;;;;;4868338;29;20040;-73
2020/12/09 08:36:40;;;;;;;15.45;6.30;;;1.60;99.90;;;;;;4864799;29;20033;-71
2020/12/09 08:39:06;;;;;;;13.70;6.50;;;1.80;99.90;;;;;;4872010;29;20486;-73
2020/12/09 08:41:34;;;;;;;14.68;6.38;;;1.80;99.90;;;;;;4868560;29;20041;-72
2020/12/09 08:44:01;;;;;;;10.13;5.90;;;1.70;99.90;;;;;;4878313;29;20100;-72
2020/12/09 08:46:29;;;;;;;9.77;6.40;;;1.70;99.90;;;;;;4873569;29;20029;-72
2020/12/09 08:48:56;;;;;;;14.65;7.18;;;1.70;99.90;;;;;;4864574;29;20501;-70
2020/12/09 08:51:29;;;;;;;16.50;6.40;;;1.60;99.90;;;;;;4861360;29;20029;-70
2020/12/09 08:53:57;;;;;;;16.17;7.05;;;1.60;99.90;;;;;;4868405;29;20035;-70
2020/12/09 08:56:26;;;;;;;15.43;7.32;;;1.60;99.90;;;;;;4872299;29;20036;-70
2020/12/09 08:58:53;;;;;;;14.85;6.40;;;1.60;99.90;;;;;;4881433;29;20025;-74
2020/12/09 09:01:18;;;;;;;12.88;6.32;;;1.60;99.90;;;;;;4870581;29;20437;-74
2020/12/09 09:03:46;;;;;;;12.80;6.25;;;1.60;99.90;;;;;;4866050;29;20033;-74
2020/12/09 09:06:11;;;;;;;12.50;6.47;;;1.60;99.90;;;;;;4869409;29;20021;-74
2020/12/09 09:08:37;;;;;;;10.77;6.38;;;1.60;99.90;;;;;;4876590;29;20041;-73
2020/12/09 09:11:03;;;;;;;19.48;7.80;;;1.50;99.90;;;;;;4869343;29;20037;-74
2020/12/09 09:13:28;;;;;;;16.35;6.55;;;1.50;99.90;;;;;;4873557;29;20621;-74
2020/12/09 09:15:54;;;;;;;15.70;7.03;;;1.50;99.90;;;;;;4875528;29;20025;-74
2020/12/09 09:18:20;;;;;;;15.63;7.43;;;1.50;99.90;;;;;;4881359;29;20069;-73
2020/12/09 09:20:47;;;;;;;15.15;7.65;;;1.60;99.90;;;;;;4879198;29;20029;-88
2020/12/09 09:23:13;;;;;;;16.38;7.78;;;1.60;99.90;;;;;;4871742;29;20029;-76
2020/12/09 09:25:39;;;;;;;14.25;7.47;;;1.60;99.90;;;;;;4879728;29;20044;-77
2020/12/09 09:28:04;;;;;;;15.35;7.32;;;1.60;99.90;;;;;;4867988;29;20136;-78
2020/12/09 09:30:30;;;;;;;12.88;7.07;;;1.60;99.90;;;;;;4888887;29;20064;-77
2020/12/09 09:32:56;;;;;;;17.52;6.70;;;1.60;99.90;;;;;;4886398;29;20037;-79
2020/12/09 09:35:22;;;;;;;16.92;6.32;;;1.70;99.90;;;;;;4867685;29;20477;-87
2020/12/09 09:37:48;;;;;;;19.92;7.75;;;1.70;99.90;;;;;;4871105;29;20034;-73
2020/12/09 09:40:14;;;;;;;12.80;6.68;;;1.70;99.90;;;;;;4864658;29;20082;-78
2020/12/09 09:42:40;;;;;;;15.18;6.15;;;1.70;99.90;;;;;;4861845;29;20462;-73
2020/12/09 09:45:08;;;;;;;11.88;6.75;;;1.60;99.90;;;;;;4862461;29;20022;-73
2020/12/09 09:47:36;;;;;;;15.75;6.85;;;1.60;99.90;;;;;;4866729;29;20040;-76
2020/12/09 09:50:04;;;;;;;14.55;6.63;;;1.60;99.90;;;;;;4864052;29;20030;-76
2020/12/09 09:52:29;;;;;;;14.68;6.25;;;1.60;99.90;;;;;;4868096;29;20124;-76
2020/12/09 09:54:55;;;;;;;13.18;6.65;;;1.60;99.90;;;;;;4881472;29;20113;-76
2020/12/09 09:57:21;;;;;;;12.35;6.53;;;1.60;99.90;;;;;;4884885;29;20404;-75
2020/12/09 09:59:46;;;;;;;14.43;6.63;;;1.60;99.90;;;;;;4885995;29;20036;-79
2020/12/09 10:02:12;;;;;;;17.17;6.88;;;1.60;99.90;;;;;;4883563;29;20028;-78
2020/12/09 10:04:38;;;;;;;14.70;7.25;;;1.70;99.90;;;;;;4875752;29;20104;-78
2020/12/09 10:07:03;;;;;;;15.10;6.55;;;1.60;99.90;;;;;;4887982;29;20040;-78
2020/12/09 10:09:29;;;;;;;13.80;6.43;;;1.60;99.90;;;;;;4885498;29;20041;-78
2020/12/09 10:11:55;;;;;;;14.95;6.38;;;1.60;99.90;;;;;;4885187;29;20040;-77
2020/12/09 10:14:21;;;;;;;13.73;6.18;;;1.60;99.90;;;;;;4871867;29;20489;-79
2020/12/09 10:16:47;;;;;;;16.88;6.82;;;1.60;99.90;;;;;;4876494;29;20037;-78
2020/12/09 10:19:13;;;;;;;14.45;6.35;;;1.60;99.90;;;;;;4872089;29;20535;-80
2020/12/09 10:21:39;;;;;;;13.55;6.35;;;1.60;99.90;;;;;;4865829;29;20029;-80
2020/12/09 10:24:06;;;;;;;12.50;6.13;;;1.60;99.90;;;;;;4875377;29;20032;-80
2020/12/09 10:26:39;;;;;;;12.10;6.40;;;1.70;99.90;;;;;;4880494;29;20037;-80
2020/12/09 10:29:09;;;;;;;18.00;8.15;;;1.70;99.90;;;;;;4860188;29;20029;-82
2020/12/09 10:31:40;;;;;;;11.93;6.68;;;1.70;99.90;;;;;;4868795;29;20024;-83
2020/12/09 10:34:08;;;;;;;14.05;6.13;;;1.70;99.90;;;;;;4866292;29;20511;-75
2020/12/09 10:36:34;;;;;;;16.73;6.13;;;1.70;99.90;;;;;;4888412;29;20036;-78
2020/12/09 10:39:00;;;;;;;17.60;7.22;;;1.70;99.90;;;;;;4879486;29;20017;-78
2020/12/09 10:41:26;;;;;;;12.35;6.47;;;1.70;99.90;;;;;;4875792;29;20093;-78
2020/12/09 10:43:53;;;;;;;22.33;7.40;;;1.70;99.90;;;;;;4868648;29;20053;-78
2020/12/09 10:46:20;;;;;;;14.30;7.28;;;1.70;99.90;;;;;;4863479;29;20061;-77
2020/12/09 10:48:47;;;;;;;14.43;6.90;;;1.70;99.90;;;;;;4880259;29;20031;-77
2020/12/09 10:51:12;;;;;;;12.32;6.68;;;1.70;99.90;;;;;;4872244;29;20024;-77
2020/12/09 10:53:38;;;;;;;16.95;6.57;;;1.70;99.90;;;;;;4876176;29;20803;-77
2020/12/09 10:56:04;;;;;;;20.13;6.88;;;1.70;99.90;;;;;;4882021;29;20025;-77
2020/12/09 10:58:31;;;;;;;14.57;7.05;;;1.70;99.90;;;;;;4877703;29;20040;-77
2020/12/09 11:00:57;;;;;;;18.05;8.20;;;1.70;99.90;;;;;;4886019;29;20031;-77
2020/12/09 11:03:24;;;;;;;15.02;6.95;;;1.70;99.90;;;;;;4876269;29;20076;-77
2020/12/09 11:05:50;;;;;;;18.30;7.57;;;1.70;99.90;;;;;;4878640;29;20510;-78
2020/12/09 11:08:16;;;;;;;13.88;7.53;;;1.70;99.90;;;;;;4881566;29;20080;-79
2020/12/09 11:10:42;;;;;;;17.88;7.78;;;1.70;99.90;;;;;;4879933;29;20625;-78
2020/12/09 11:13:08;;;;;;;19.35;7.40;;;1.70;99.90;;;;;;4881937;29;20025;-79
2020/12/09 11:15:34;;;;;;;18.35;8.02;;;1.70;99.90;;;;;;4885333;29;20153;-77
2020/12/09 11:18:00;;;;;;;15.30;7.13;;;1.70;99.90;;;;;;4863059;29;20033;-80
2020/12/09 11:20:27;;;;;;;19.25;7.45;;;1.70;99.90;;;;;;4876703;29;20121;-80
2020/12/09 11:22:53;;;;;;;15.95;7.40;;;2.10;99.90;;;;;;4887309;29;20108;-80
2020/12/09 11:25:21;;;;;;;12.27;6.75;;;2.20;99.90;;;;;;4889979;29;20037;-79
2020/12/09 11:27:47;;;;;;;13.48;6.80;;;2.00;99.90;;;;;;4863668;29;20133;-81
2020/12/09 11:30:13;;;;;;;17.42;7.93;;;1.90;99.90;;;;;;4867891;29;20104;-81
2020/12/09 11:32:38;;;;;;;15.30;7.55;;;1.90;99.90;;;;;;4878821;29;20035;-81
2020/12/09 11:35:04;;;;;;;15.57;6.70;;;1.90;99.90;;;;;;4875542;29;20029;-78
2020/12/09 11:37:34;;;;;;;13.90;7.07;;;1.80;99.90;;;;;;4869422;29;20065;-79
2020/12/09 11:40:00;;;;;;;19.77;7.80;;;1.80;99.90;;;;;;4863326;29;20030;-81
2020/12/09 11:42:26;;;;;;;15.13;8.07;;;1.80;99.90;;;;;;4860141;29;20645;-79
2020/12/09 11:44:51;;;;;;;18.52;7.70;;;1.80;99.90;;;;;;4860514;29;20033;-80
2020/12/09 11:47:17;;;;;;;14.27;7.38;;;1.80;99.90;;;;;;4860288;29;20177;-80
2020/12/09 11:49:43;;;;;;;17.23;7.90;;;1.80;99.90;;;;;;4860286;29;20029;-80
2020/12/09 11:52:09;;;;;;;19.08;7.45;;;1.80;99.90;;;;;;4859967;29;20129;-80
2020/12/09 11:54:35;;;;;;;15.55;7.57;;;1.80;99.90;;;;;;4859868;29;20157;-80
2020/12/09 11:57:01;;;;;;;17.48;8.35;;;1.80;99.90;;;;;;4859920;29;20030;-80
2020/12/09 11:59:27;;;;;;;14.23;7.05;;;1.80;99.90;;;;;;4859926;29;20030;-80
2020/12/09 12:01:53;;;;;;;17.48;7.00;;;1.80;99.90;;;;;;4879005;29;20066;-80
2020/12/09 12:04:19;;;;;;;19.58;7.65;;;1.80;99.90;;;;;;4870955;29;20040;-80
2020/12/09 12:06:45;;;;;;;21.65;7.93;;;1.80;99.90;;;;;;4884360;29;20037;-79
2020/12/09 12:09:11;;;;;;;21.75;8.50;;;1.80;99.90;;;;;;4884022;29;20108;-79
2020/12/09 12:11:37;;;;;;;12.35;7.05;;;1.90;99.90;;;;;;4887016;29;20029;-80
2020/12/09 12:14:03;;;;;;;21.83;6.93;;;1.90;99.90;;;;;;4861986;29;20797;-77
2020/12/09 12:16:29;;;;;;;18.88;7.32;;;1.90;99.90;;;;;;4861543;29;20124;-75
2020/12/09 12:18:55;;;;;;;15.27;7.72;;;1.90;99.90;;;;;;4866252;29;20116;-76
2020/12/09 12:21:24;;;;;;;13.05;7.45;;;1.90;99.90;;;;;;4870815;29;20034;-76
2020/12/09 12:23:50;;;;;;;16.90;7.68;;;1.90;99.90;;;;;;4863192;29;20025;-73
2020/12/09 12:26:22;;;;;;;13.90;7.00;;;1.90;99.90;;;;;;4865876;29;20041;-75
2020/12/09 12:28:49;;;;;;;14.45;7.18;;;1.90;99.90;;;;;;4861287;29;20243;-76
2020/12/09 12:31:17;;;;;;;17.88;7.22;;;1.90;99.90;;;;;;4862904;29;20104;-71
2020/12/09 12:33:43;;;;;;;13.20;7.07;;;1.90;99.90;;;;;;4860494;29;20025;-78
2020/12/09 12:36:09;;;;;;;13.07;7.13;;;1.90;99.90;;;;;;4862619;29;20367;-78
2020/12/09 12:38:35;;;;;;;19.75;7.78;;;1.90;99.90;;;;;;4863718;29;20032;-78
2020/12/09 12:41:10;;;;;;;15.60;7.00;;;1.90;99.90;;;;;;4872112;29;20033;-77
2020/12/09 12:43:35;;;;;;;19.17;7.43;;;1.90;99.90;;;;;;4867021;29;20088;-76
2020/12/09 12:46:01;;;;;;;14.45;6.43;;;1.90;99.90;;;;;;4860281;29;20037;-80
2020/12/09 12:48:27;;;;;;;18.30;7.65;;;2.30;99.90;;;;;;4863574;29;20124;-75
2020/12/09 12:50:53;;;;;;;12.85;7.15;;;2.40;99.90;;;;;;4860381;29;20025;-78
2020/12/09 12:53:18;;;;;;;13.40;6.25;;;2.30;99.90;;;;;;4859038;29;20112;-85
2020/12/09 12:55:44;;;;;;;15.90;6.63;;;2.50;99.90;;;;;;4861267;29;20021;-77
2020/12/09 12:58:10;;;;;;;15.93;6.97;;;2.60;99.90;;;;;;4863869;29;20137;-76
2020/12/09 13:00:35;;;;;;;16.73;6.78;;;2.50;99.90;;;;;;4864307;29;20117;-76
2020/12/09 13:03:01;;;;;;;15.43;6.82;;;3.50;99.90;;;;;;4877649;29;20370;-76
2020/12/09 13:05:27;;;;;;;13.43;6.72;;;3.20;99.90;;;;;;4879302;29;20040;-76
2020/12/09 13:07:53;;;;;;;15.20;6.20;;;3.00;99.90;;;;;;4884623;29;20195;-76
2020/12/09 13:10:20;;;;;;;10.38;6.28;;;2.80;99.90;;;;;;4886664;29;20033;-76
2020/12/09 13:12:46;;;;;;;16.27;6.20;;;2.60;99.90;;;;;;4883415;29;20064;-76
2020/12/09 13:15:12;;;;;;;12.65;5.63;;;2.60;99.90;;;;;;4879343;29;20056;-75
2020/12/09 13:17:38;;;;;;;13.13;6.22;;;2.50;99.90;;;;;;4885051;29;20078;-76
2020/12/09 13:20:08;;;;;;;13.35;5.97;;;2.40;99.90;;;;;;4886983;29;20508;-76
2020/12/09 13:22:35;;;;;;;15.95;5.65;;;2.40;99.90;;;;;;4878801;29;20111;-75
2020/12/09 13:25:02;;;;;;;11.63;6.78;;;2.40;99.90;;;;;;4883928;29;20370;-75
2020/12/09 13:27:27;;;;;;;9.10;5.55;;;2.40;99.90;;;;;;4871112;29;20064;-76
2020/12/09 13:29:53;;;;;;;13.05;5.68;;;2.40;99.90;;;;;;4861708;29;20482;-76
2020/12/09 13:32:19;;;;;;;15.25;6.03;;;2.40;99.90;;;;;;4866579;29;20034;-77
2020/12/09 13:34:44;;;;;;;10.85;5.70;;;2.60;99.90;;;;;;4862968;29;20185;-78
2020/12/09 13:37:10;;;;;;;12.63;5.68;;;2.50;99.90;;;;;;4863364;29;20041;-77
2020/12/09 13:39:36;;;;;;;13.60;6.43;;;2.40;99.90;;;;;;4863411;29;20028;-75
2020/12/09 13:42:01;;;;;;;10.68;5.45;;;2.40;99.90;;;;;;4869056;29;20048;-76
2020/12/09 13:44:27;;;;;;;12.73;6.47;;;2.40;99.90;;;;;;4861865;29;20055;-77
2020/12/09 13:46:53;;;;;;;11.00;5.30;;;2.40;99.90;;;;;;4860796;29;20033;-76
2020/12/09 13:49:18;;;;;;;11.50;6.10;;;2.40;99.90;;;;;;4859883;29;20034;-76
2020/12/09 13:51:44;;;;;;;11.75;6.07;;;2.40;99.90;;;;;;4865644;29;20549;-75
2020/12/09 13:54:10;;;;;;;13.65;5.90;;;2.40;99.90;;;;;;4859557;29;20438;-76
2020/12/09 13:56:36;;;;;;;12.00;5.40;;;2.40;99.90;;;;;;4858762;29;20017;-77
2020/12/09 13:59:03;;;;;;;14.77;5.78;;;2.40;99.90;;;;;;4863310;29;20088;-76
2020/12/09 14:01:29;;;;;;;13.05;5.22;;;2.40;99.90;;;;;;4862618;29;20025;-79
2020/12/09 14:03:55;;;;;;;12.13;5.60;;;2.40;99.90;;;;;;4871892;29;20024;-78
2020/12/09 14:06:26;;;;;;;11.98;5.40;;;2.40;99.90;;;;;;4888411;29;20100;-76
2020/12/09 14:08:52;;;;;;;12.98;6.03;;;2.30;99.90;;;;;;4891820;29;20029;-77
2020/12/09 14:11:30;;;;;;;10.15;5.15;;;2.30;99.90;;;;;;4887923;29;20021;-78
2020/12/09 14:13:57;;;;;;;15.35;5.82;;;2.30;99.90;;;;;;4883342;29;20494;-78
2020/12/09 14:16:29;;;;;;;11.25;5.60;;;2.30;99.90;;;;;;4883199;29;20029;-78
2020/12/09 14:18:55;;;;;;;13.18;6.22;;;2.30;99.90;;;;;;4881917;29;20056;-76
2020/12/09 14:21:21;;;;;;;13.18;5.63;;;2.30;99.90;;;;;;4867114;29;20033;-76
2020/12/09 14:23:51;;;;;;;10.80;4.72;;;2.30;99.90;;;;;;4866591;29;20077;-76
2020/12/09 14:26:19;;;;;;;10.50;5.57;;;2.30;99.90;;;;;;4865764;29;20021;-74
2020/12/09 14:28:45;;;;;;;10.98;5.03;;;2.30;99.90;;;;;;4864507;29;20041;-74
2020/12/09 14:31:11;;;;;;;13.15;5.43;;;2.30;99.90;;;;;;4864034;29;20040;-74
2020/12/09 14:33:37;;;;;;;9.88;5.47;;;2.30;99.90;;;;;;4867015;29;20513;-77
2020/12/09 14:36:02;;;;;;;11.43;5.40;;;2.30;99.90;;;;;;4865732;29;20056;-79
2020/12/09 14:38:28;;;;;;;13.15;6.05;;;2.30;99.90;;;;;;4861418;29;20445;-72
2020/12/09 14:40:54;;;;;;;11.20;5.60;;;2.40;99.90;;;;;;4868487;29;20757;-78
2020/12/09 14:43:19;;;;;;;10.00;6.07;;;2.40;99.90;;;;;;4866719;29;20033;-79
2020/12/09 14:45:45;;;;;;;14.75;6.05;;;2.40;99.90;;;;;;4887174;29;20059;-81
2020/12/09 14:48:11;;;;;;;9.65;5.97;;;2.40;99.90;;;;;;4877432;29;20097;-82
2020/12/09 14:50:36;;;;;;;13.82;6.15;;;2.40;99.90;;;;;;4877315;29;20402;-81
2020/12/09 14:53:03;;;;;;;9.05;5.43;;;2.40;99.90;;;;;;4872982;29;20092;-80
2020/12/09 14:55:28;;;;;;;12.90;5.50;;;2.40;99.90;;;;;;4868301;29;20028;-80
2020/12/09 14:57:54;;;;;;;12.80;5.80;;;2.50;99.90;;;;;;4873474;29;20030;-80
2020/12/09 15:00:20;;;;;;;8.43;5.90;;;2.40;99.90;;;;;;4875956;29;20481;-81
2020/12/09 15:02:48;;;;;;;11.48;5.97;;;2.40;99.90;;;;;;4884503;29;20028;-82
2020/12/09 15:05:14;;;;;;;9.55;5.18;;;2.40;99.90;;;;;;4883303;29;20048;-81
2020/12/09 15:07:40;;;;;;;12.00;5.65;;;2.40;99.90;;;;;;4877536;29;20413;-83
2020/12/09 15:10:06;;;;;;;11.40;6.38;;;2.40;99.90;;;;;;4879749;29;20029;-83
2020/12/09 15:12:32;;;;;;;11.50;6.07;;;2.30;99.90;;;;;;4865692;29;20535;-79
2020/12/09 15:14:57;;;;;;;9.45;5.50;;;2.40;99.90;;;;;;4868832;29;20056;-79
2020/12/09 15:17:23;;;;;;;13.25;6.20;;;2.40;99.90;;;;;;4868139;29;20033;-80
2020/12/09 15:19:49;;;;;;;9.10;5.47;;;2.40;99.90;;;;;;4878591;29;20041;-80
2020/12/09 15:22:15;;;;;;;10.85;5.78;;;2.40;99.90;;;;;;4876874;29;20489;-80
2020/12/09 15:24:41;;;;;;;9.73;5.45;;;2.40;99.90;;;;;;4882995;29;20028;-80
2020/12/09 15:27:07;;;;;;;9.13;5.57;;;2.40;99.90;;;;;;4863889;29;20041;-81
2020/12/09 15:29:33;;;;;;;9.90;5.07;;;2.40;99.90;;;;;;4873849;29;20068;-80
2020/12/09 15:31:59;;;;;;;10.07;5.10;;;2.40;99.90;;;;;;4878795;29;20025;-81
2020/12/09 15:34:25;;;;;;;8.80;5.78;;;2.30;99.90;;;;;;4872140;29;20053;-79
2020/12/09 15:36:58;;;;;;;10.15;5.10;;;2.40;99.90;;;;;;4873162;29;20030;-79
2020/12/09 15:39:24;;;;;;;6.97;4.80;;;2.30;99.90;;;;;;4871858;29;20401;-79
2020/12/09 15:41:50;;;;;;;9.68;5.03;;;2.30;99.90;;;;;;4875982;29;20040;-79
2020/12/09 15:44:16;;;;;;;9.00;5.00;;;2.30;99.90;;;;;;4868593;29;20557;-80
2020/12/09 15:46:42;;;;;;;9.65;5.20;;;2.30;99.90;;;;;;4878181;29;20120;-79
2020/12/09 15:49:07;;;;;;;7.15;4.88;;;2.30;99.90;;;;;;4874683;29;20061;-79
2020/12/09 15:51:33;;;;;;;10.05;5.32;;;2.30;99.90;;;;;;4883898;29;20032;-79
2020/12/09 15:53:59;;;;;;;8.35;4.72;;;2.30;99.90;;;;;;4875533;29;20032;-79
2020/12/09 15:56:24;;;;;;;7.57;4.65;;;2.30;99.90;;;;;;4868372;29;20061;-77
2020/12/09 15:58:50;;;;;;;8.30;4.85;;;2.30;99.90;;;;;;4871839;29;20034;-78
2020/12/09 16:01:16;;;;;;;9.07;5.32;;;2.30;99.90;;;;;;4881076;29;20024;-76
2020/12/09 16:03:43;;;;;;;9.15;5.22;;;2.30;99.90;;;;;;4874226;29;20474;-77
2020/12/09 16:06:09;;;;;;;10.65;4.82;;;2.30;99.90;;;;;;4878112;29;20060;-76
2020/12/09 16:08:35;;;;;;;9.32;4.97;;;2.30;99.90;;;;;;4880725;29;20379;-77
2020/12/09 16:11:00;;;;;;;6.15;4.28;;;2.30;99.90;;;;;;4862621;29;20040;-75
2020/12/09 16:13:27;;;;;;;9.40;4.85;;;2.30;99.90;;;;;;4863887;29;20029;-83
2020/12/09 16:15:53;;;;;;;7.10;4.18;;;2.30;99.90;;;;;;4876160;29;20025;-84
2020/12/09 16:18:19;;;;;;;8.90;4.15;;;2.30;99.90;;;;;;4869260;29;20033;-85
2020/12/09 16:20:44;;;;;;;6.03;4.45;;;2.30;99.90;;;;;;4881311;29;20048;-86
2020/12/09 16:23:10;;;;;;;7.40;4.38;;;2.30;99.90;;;;;;4879862;29;20096;-85
2020/12/09 16:25:36;;;;;;;7.88;4.30;;;2.30;99.90;;;;;;4884414;29;20036;-85
2020/12/09 16:28:02;;;;;;;7.13;4.18;;;2.30;99.90;;;;;;4883830;29;20033;-86
2020/12/09 16:30:28;;;;;;;5.35;3.90;;;2.30;99.90;;;;;;4859395;29;20022;-84
2020/12/09 16:32:55;;;;;;;8.27;4.43;;;2.30;99.90;;;;;;4864946;29;20033;-78
2020/12/09 16:35:22;;;;;;;7.20;4.38;;;2.30;99.90;;;;;;4877129;29;20024;-79
2020/12/09 16:37:49;;;;;;;7.82;4.93;;;2.30;99.90;;;;;;4881338;29;20116;-77
2020/12/09 16:40:14;;;;;;;7.93;4.85;;;2.30;99.90;;;;;;4878462;29;20032;-77
2020/12/09 16:42:43;;;;;;;9.93;4.68;;;2.30;99.90;;;;;;4862701;29;20029;-77
2020/12/09 16:45:08;;;;;;;9.98;5.13;;;2.30;99.90;;;;;;4880660;29;20397;-78
2020/12/09 16:47:35;;;;;;;8.70;4.47;;;2.40;99.90;;;;;;4877260;29;20029;-78
2020/12/09 16:50:02;;;;;;;7.65;4.47;;;2.40;99.90;;;;;;4882709;29;20029;-76
2020/12/09 16:52:28;;;;;;;6.75;4.40;;;2.40;99.90;;;;;;4860033;29;20033;-75
2020/12/09 16:54:53;;;;;;;7.45;4.50;;;2.40;99.90;;;;;;4860368;29;20498;-74
2020/12/09 16:57:19;;;;;;;8.05;4.10;;;2.40;99.90;;;;;;4875669;29;20039;-73
2020/12/09 16:59:45;;;;;;;5.20;3.80;;;2.40;99.90;;;;;;4869329;29;20107;-76
2020/12/09 17:02:11;;;;;;;6.80;4.38;;;2.40;99.90;;;;;;4865640;29;20025;-75
2020/12/09 17:04:37;;;;;;;9.38;4.60;;;2.50;99.90;;;;;;4870585;29;20085;-75
2020/12/09 17:07:03;;;;;;;8.50;5.03;;;2.70;99.90;;;;;;4872368;29;20029;-80
2020/12/09 17:09:28;;;;;;;7.28;4.57;;;2.60;99.90;;;;;;4865556;29;20037;-80
2020/12/09 17:11:54;;;;;;;8.40;4.43;;;2.60;99.90;;;;;;4868414;29;20026;-80
2020/12/09 17:14:20;;;;;;;8.73;4.75;;;2.50;99.90;;;;;;4871619;29;20038;-80
2020/12/09 17:16:53;;;;;;;9.15;4.72;;;2.50;99.90;;;;;;4869470;29;20028;-80
2020/12/09 17:19:24;;;;;;;9.32;4.95;;;2.50;99.90;;;;;;4865410;29;20045;-80
2020/12/09 17:21:50;;;;;;;8.15;4.95;;;2.50;99.90;;;;;;4880642;29;20080;-79
2020/12/09 17:24:16;;;;;;;13.55;5.65;;;2.50;99.90;;;;;;4865546;29;20092;-79
2020/12/09 17:26:49;;;;;;;10.05;5.00;;;2.50;99.90;;;;;;4874240;29;20108;-80
2020/12/09 17:29:15;;;;;;;7.70;5.15;;;2.50;99.90;;;;;;4870326;29;20165;-83
2020/12/09 17:31:42;;;;;;;17.17;8.38;;;2.50;99.90;;;;;;4876247;29;20025;-81
2020/12/09 17:34:09;;;;;;;11.25;6.10;;;2.50;99.90;;;;;;4877563;29;20108;-82
2020/12/09 17:36:34;;;;;;;10.98;5.20;;;2.60;99.90;;;;;;4875518;29;20025;-81
2020/12/09 17:39:00;;;;;;;10.48;5.70;;;2.60;99.90;;;;;;4860531;29;20487;-83
2020/12/09 17:41:26;;;;;;;8.93;4.50;;;2.60;99.90;;;;;;4875710;29;20065;-82
2020/12/09 17:43:52;;;;;;;7.25;4.82;;;2.50;99.90;;;;;;4881186;29;20021;-79
2020/12/09 17:46:17;;;;;;;6.43;4.45;;;2.50;99.90;;;;;;4881074;29;20478;-80
2020/12/09 17:48:44;;;;;;;15.50;8.02;;;2.50;99.90;;;;;;4863700;29;20033;-78
2020/12/09 17:51:09;;;;;;;6.65;4.35;;;2.50;99.90;;;;;;4862374;29;20112;-80
2020/12/09 17:53:35;;;;;;;9.25;5.63;;;2.50;99.90;;;;;;4865865;29;20832;-78
2020/12/09 17:56:03;;;;;;;8.25;4.28;;;2.50;99.90;;;;;;4868275;29;20544;-80
2020/12/09 17:58:29;;;;;;;9.13;3.97;;;2.50;99.90;;;;;;4871256;29;20486;-81
2020/12/09 18:00:55;;;;;;;5.63;3.58;;;2.50;99.90;;;;;;4877117;29;20038;-79
2020/12/09 18:03:20;;;;;;;8.15;4.88;;;2.50;99.90;;;;;;4874064;29;20029;-80
2020/12/09 18:05:47;;;;;;;7.90;4.53;;;2.60;99.90;;;;;;4870998;29;20750;-78
2020/12/09 18:08:14;;;;;;;7.78;4.78;;;2.50;99.90;;;;;;4874172;29;20081;-80